createdAt,value
2018-09-21T00:02:11.077Z,3.63
2018-09-21T00:04:39.292Z,2.93
2018-09-21T00:07:07.519Z,3.57
2018-09-21T00:09:35.724Z,3.47
2018-09-21T00:12:23.869Z,2.60
2018-09-21T00:14:52.771Z,3.73
2018-09-21T00:17:21.020Z,3.33
2018-09-21T00:19:49.236Z,3.60
2018-09-21T00:22:17.467Z,3.93
2018-09-21T00:24:45.692Z,2.87
2018-09-21T00:27:13.940Z,2.90
2018-09-21T00:29:42.175Z,2.93
2018-09-21T00:32:10.624Z,3.30
2018-09-21T00:34:38.879Z,3.00
2018-09-21T00:37:07.181Z,3.53
2018-09-21T00:39:35.440Z,3.00
2018-09-21T00:42:03.702Z,3.23
2018-09-21T00:44:32.043Z,3.13
2018-09-21T00:47:00.381Z,3.20
2018-09-21T00:49:28.595Z,2.67
2018-09-21T00:51:56.816Z,3.60
2018-09-21T00:54:25.060Z,3.13
2018-09-21T00:56:53.620Z,3.37
2018-09-21T00:59:21.848Z,2.90
2018-09-21T01:01:50.070Z,3.40
2018-09-21T01:04:18.299Z,3.40
2018-09-21T01:06:46.537Z,2.70
2018-09-21T01:09:14.747Z,3.40
2018-09-21T01:11:42.996Z,3.73
2018-09-21T01:14:11.219Z,3.13
2018-09-21T01:16:39.474Z,3.10
2018-09-21T01:19:07.668Z,3.93
2018-09-21T01:21:35.895Z,3.23
2018-09-21T01:24:04.106Z,2.80
2018-09-21T01:26:32.295Z,3.73
2018-09-21T01:29:01.812Z,4.00
2018-09-21T01:31:30.051Z,3.90
2018-09-21T01:33:58.313Z,3.40
2018-09-21T01:36:27.176Z,3.40
2018-09-21T01:38:55.551Z,3.90
2018-09-21T01:41:23.776Z,3.20
2018-09-21T01:43:51.978Z,3.90
2018-09-21T01:46:20.229Z,2.80
2018-09-21T01:48:48.429Z,3.93
2018-09-21T01:51:16.652Z,3.10
2018-09-21T01:53:44.856Z,3.73
2018-09-21T01:56:13.053Z,4.10
2018-09-21T01:58:41.264Z,3.10
2018-09-21T02:01:09.472Z,3.43
2018-09-21T02:03:37.669Z,3.37
2018-09-21T02:06:05.899Z,3.00
2018-09-21T02:08:34.108Z,2.87
2018-09-21T02:11:02.347Z,3.10
2018-09-21T02:13:30.570Z,3.10
2018-09-21T02:15:58.833Z,3.20
2018-09-21T02:18:27.072Z,3.40
2018-09-21T02:20:55.657Z,3.77
2018-09-21T02:23:24.089Z,3.60
2018-09-21T02:25:52.312Z,3.03
2018-09-21T02:28:20.577Z,2.70
2018-09-21T02:30:48.867Z,2.73
2018-09-21T02:33:17.104Z,2.60
2018-09-21T02:35:45.324Z,2.90
2018-09-21T02:38:13.529Z,2.70
2018-09-21T02:40:41.764Z,3.33
2018-09-21T02:43:10.032Z,2.37
2018-09-21T02:45:38.360Z,3.57
2018-09-21T02:48:06.825Z,2.80
2018-09-21T02:50:35.059Z,3.20
2018-09-21T02:53:03.292Z,2.53
2018-09-21T02:55:31.525Z,2.87
2018-09-21T02:57:59.788Z,3.03
2018-09-21T03:00:28.047Z,2.53
2018-09-21T03:02:56.548Z,3.30
2018-09-21T03:05:24.779Z,2.60
2018-09-21T03:07:53.020Z,3.23
2018-09-21T03:10:21.311Z,1.90
2018-09-21T03:12:49.550Z,2.90
2018-09-21T03:15:17.776Z,3.07
2018-09-21T03:17:46.016Z,2.70
2018-09-21T03:20:14.254Z,3.10
2018-09-21T03:22:42.442Z,4.03
2018-09-21T03:25:10.669Z,3.70
2018-09-21T03:27:38.847Z,2.90
2018-09-21T03:30:07.068Z,2.67
2018-09-21T03:32:35.303Z,3.10
2018-09-21T03:35:05.344Z,2.87
2018-09-21T03:37:33.523Z,2.63
2018-09-21T03:40:01.761Z,3.13
2018-09-21T03:42:30.018Z,2.70
2018-09-21T03:44:58.379Z,2.27
2018-09-21T03:47:26.622Z,2.70
2018-09-21T03:49:54.821Z,2.77
2018-09-21T03:52:23.082Z,2.37
2018-09-21T03:54:51.321Z,2.90
2018-09-21T03:57:19.589Z,2.47
2018-09-21T03:59:47.859Z,2.10
2018-09-21T04:02:16.086Z,3.50
2018-09-21T04:04:44.281Z,2.67
2018-09-21T04:07:12.605Z,2.67
2018-09-21T04:09:40.821Z,2.57
2018-09-21T04:12:09.016Z,3.00
2018-09-21T04:14:37.301Z,3.13
2018-09-21T04:17:05.671Z,3.57
2018-09-21T04:19:34.049Z,3.07
2018-09-21T04:22:02.261Z,4.13
2018-09-21T04:24:30.525Z,2.63
2018-09-21T04:27:05.205Z,3.57
2018-09-21T04:29:33.435Z,2.73
2018-09-21T04:32:01.664Z,3.60
2018-09-21T04:34:29.878Z,4.03
2018-09-21T04:36:58.203Z,3.70
2018-09-21T04:39:26.422Z,3.23
2018-09-21T04:41:54.658Z,2.30
2018-09-21T04:44:23.429Z,3.00
2018-09-21T04:46:51.648Z,3.43
2018-09-21T04:49:19.868Z,2.70
2018-09-21T04:51:48.086Z,2.90
2018-09-21T04:54:16.289Z,2.77
2018-09-21T04:56:44.531Z,2.27
2018-09-21T04:59:12.729Z,2.60
2018-09-21T05:01:41.284Z,3.20
2018-09-21T05:04:09.476Z,3.10
2018-09-21T05:06:37.714Z,3.20
2018-09-21T05:09:08.166Z,3.37
2018-09-21T05:11:36.366Z,3.40
2018-09-21T05:14:04.762Z,3.20
2018-09-21T05:16:32.972Z,2.57
2018-09-21T05:19:01.317Z,2.20
2018-09-21T05:21:29.601Z,2.57
2018-09-21T05:23:57.881Z,2.87
2018-09-21T05:26:26.153Z,3.90
2018-09-21T05:28:54.373Z,3.00
2018-09-21T05:31:22.601Z,3.53
2018-09-21T05:33:50.820Z,3.87
2018-09-21T05:36:19.037Z,3.67
2018-09-21T05:38:47.272Z,2.50
2018-09-21T05:41:15.512Z,2.70
2018-09-21T05:43:43.735Z,3.20
2018-09-21T05:46:11.970Z,2.00
2018-09-21T05:48:40.195Z,3.93
2018-09-21T05:51:08.482Z,3.30
2018-09-21T05:53:36.704Z,3.33
2018-09-21T05:56:04.986Z,2.43
2018-09-21T05:58:34.299Z,2.33
2018-09-21T06:01:02.634Z,3.13
2018-09-21T06:03:30.929Z,2.60
2018-09-21T06:05:59.232Z,2.43
2018-09-21T06:08:27.434Z,2.03
2018-09-21T06:10:55.648Z,3.50
2018-09-21T06:13:23.844Z,3.50
2018-09-21T06:15:52.071Z,3.33
2018-09-21T06:18:20.298Z,4.30
2018-09-21T06:20:48.549Z,3.80
2018-09-21T06:23:16.766Z,3.10
2018-09-21T06:25:45.005Z,3.07
2018-09-21T06:28:13.226Z,3.43
2018-09-21T06:30:41.458Z,2.63
2018-09-21T06:33:09.661Z,3.47
2018-09-21T06:35:37.922Z,3.07
2018-09-21T06:38:06.387Z,2.80
2018-09-21T06:40:34.589Z,2.93
2018-09-21T06:43:03.054Z,1.93
2018-09-21T06:45:31.305Z,4.70
2018-09-21T06:47:59.537Z,4.97
2018-09-21T06:50:27.769Z,2.73
2018-09-21T06:52:56.016Z,4.47
2018-09-21T06:55:24.271Z,2.30
2018-09-21T06:57:52.517Z,2.53
2018-09-21T07:00:20.761Z,4.23
2018-09-21T07:02:49.025Z,3.17
2018-09-21T07:05:18.052Z,3.73
2018-09-21T07:07:46.402Z,3.43
2018-09-21T07:10:14.945Z,2.23
2018-09-21T07:12:43.730Z,2.37
2018-09-21T07:15:12.038Z,2.60
2018-09-21T07:17:40.897Z,4.53
2018-09-21T07:20:09.137Z,4.43
2018-09-21T07:22:38.849Z,3.37
2018-09-21T07:25:07.110Z,4.50
2018-09-21T07:27:35.447Z,3.90
2018-09-21T07:30:03.721Z,4.03
2018-09-21T07:32:31.971Z,3.90
2018-09-21T07:35:00.196Z,4.30
2018-09-21T07:37:28.452Z,4.70
2018-09-21T07:39:56.672Z,3.70
2018-09-21T07:42:24.927Z,3.37
2018-09-21T07:44:53.401Z,3.87
2018-09-21T07:47:21.639Z,4.17
2018-09-21T07:49:49.873Z,5.57
2018-09-21T07:52:18.117Z,4.37
2018-09-21T07:54:46.357Z,4.47
2018-09-21T07:57:14.607Z,4.20
2018-09-21T07:59:42.861Z,4.60
2018-09-21T08:02:11.511Z,4.93
2018-09-21T08:04:39.798Z,4.50
2018-09-21T08:07:08.273Z,4.20
2018-09-21T08:09:36.572Z,4.90
2018-09-21T08:12:04.812Z,5.27
2018-09-21T08:14:33.087Z,3.87
2018-09-21T08:17:01.333Z,4.17
2018-09-21T08:19:29.612Z,3.83
2018-09-21T08:21:57.852Z,3.23
2018-09-21T08:24:26.085Z,3.17
2018-09-21T08:26:54.349Z,4.40
2018-09-21T08:29:22.598Z,4.20
2018-09-21T08:31:50.838Z,3.93
2018-09-21T08:34:19.103Z,4.90
2018-09-21T08:36:47.337Z,3.50
2018-09-21T08:39:15.575Z,4.00
2018-09-21T08:41:43.845Z,3.73
2018-09-21T08:44:12.098Z,3.97
2018-09-21T08:46:40.337Z,4.53
2018-09-21T08:49:08.569Z,4.27
2018-09-21T08:51:36.817Z,4.03
2018-09-21T08:54:05.097Z,4.57
2018-09-21T08:56:33.338Z,3.80
2018-09-21T08:59:01.546Z,4.17
2018-09-21T09:01:29.818Z,3.40
2018-09-21T09:03:58.054Z,3.87
2018-09-21T09:06:26.292Z,4.93
2018-09-21T09:08:54.538Z,4.93
2018-09-21T09:11:22.752Z,3.77
2018-09-21T09:13:51.022Z,3.17
2018-09-21T09:16:19.277Z,3.40
2018-09-21T09:18:47.516Z,2.53
2018-09-21T09:21:15.731Z,3.73
2018-09-21T09:23:44.006Z,4.30
2018-09-21T09:26:12.277Z,4.13
2018-09-21T09:28:40.558Z,4.23
2018-09-21T09:31:08.833Z,3.40
2018-09-21T09:33:37.156Z,4.07
2018-09-21T09:36:05.413Z,3.73
2018-09-21T09:38:33.649Z,4.70
2018-09-21T09:41:01.936Z,5.00
2018-09-21T09:43:30.185Z,4.03
2018-09-21T09:45:58.653Z,4.17
2018-09-21T09:48:27.122Z,5.37
2018-09-21T09:50:55.301Z,4.67
2018-09-21T09:53:23.604Z,4.30
2018-09-21T09:55:51.824Z,4.57
2018-09-21T09:58:20.077Z,4.27
2018-09-21T10:00:51.423Z,4.43
2018-09-21T10:03:20.329Z,3.83
2018-09-21T10:05:48.561Z,4.40
2018-09-21T10:08:16.793Z,4.07
2018-09-21T10:10:45.029Z,4.33
2018-09-21T10:13:13.233Z,3.97
2018-09-21T10:15:41.503Z,3.80
2018-09-21T10:18:09.726Z,5.20
2018-09-21T10:20:37.982Z,4.63
2018-09-21T10:23:06.189Z,4.97
2018-09-21T10:25:34.412Z,4.70
2018-09-21T10:28:03.081Z,5.00
2018-09-21T10:30:31.201Z,3.70
2018-09-21T10:32:59.446Z,4.57
2018-09-21T10:35:27.744Z,4.90
2018-09-21T10:37:55.876Z,4.60
2018-09-21T10:40:24.604Z,4.70
2018-09-21T10:42:52.867Z,4.50
2018-09-21T10:45:21.101Z,4.50
2018-09-21T10:47:49.422Z,3.93
2018-09-21T10:50:17.641Z,4.63
2018-09-21T10:52:45.900Z,3.40
2018-09-21T10:55:14.149Z,5.53
2018-09-21T10:57:42.416Z,4.20
2018-09-21T11:00:11.260Z,4.40
2018-09-21T11:02:39.631Z,4.03
2018-09-21T11:05:07.919Z,4.00
2018-09-21T11:07:36.158Z,3.77
2018-09-21T11:10:04.430Z,4.30
2018-09-21T11:12:32.685Z,3.17
2018-09-21T11:15:00.952Z,4.50
2018-09-21T11:17:29.192Z,4.10
2018-09-21T11:19:57.596Z,4.20
2018-09-21T11:22:25.936Z,3.40
2018-09-21T11:24:54.176Z,3.37
2018-09-21T11:27:22.430Z,3.50
2018-09-21T11:29:50.685Z,4.10
2018-09-21T11:32:19.000Z,4.77
2018-09-21T11:34:47.341Z,3.60
2018-09-21T11:37:15.598Z,3.33
2018-09-21T11:39:43.830Z,4.40
2018-09-21T11:42:12.099Z,2.83
2018-09-21T11:44:40.623Z,3.60
2018-09-21T11:47:12.041Z,4.70
2018-09-21T11:49:41.707Z,3.63
2018-09-21T11:52:10.569Z,3.97
2018-09-21T11:54:40.095Z,2.77
2018-09-21T11:57:08.406Z,3.70
2018-09-21T11:59:36.656Z,3.70
2018-09-21T12:02:04.934Z,3.60
2018-09-21T12:04:33.160Z,4.53
2018-09-21T12:07:01.408Z,4.13
2018-09-21T12:09:31.273Z,4.00
2018-09-21T12:11:59.564Z,4.37
2018-09-21T12:14:28.944Z,4.03
2018-09-21T12:16:57.257Z,3.90
2018-09-21T12:19:25.478Z,4.90
2018-09-21T12:21:53.697Z,4.83
2018-09-21T12:24:23.828Z,4.47
2018-09-21T12:26:52.126Z,3.60
2018-09-21T12:29:20.368Z,3.90
2018-09-21T12:31:48.716Z,5.23
2018-09-21T12:34:16.898Z,5.23
2018-09-21T12:36:46.667Z,3.60
2018-09-21T12:39:15.182Z,4.47
2018-09-21T12:41:44.958Z,4.23
2018-09-21T12:44:14.683Z,3.23
2018-09-21T12:46:43.946Z,3.73
2018-09-21T12:49:14.589Z,4.13
2018-09-21T12:51:43.022Z,4.30
2018-09-21T12:54:11.513Z,4.00
2018-09-21T12:56:39.825Z,4.77
2018-09-21T12:59:09.230Z,4.80
2018-09-21T13:01:38.865Z,4.40
2018-09-21T13:04:07.231Z,4.33
2018-09-21T13:06:35.485Z,4.23
2018-09-21T13:09:05.035Z,4.07
2018-09-21T13:11:33.330Z,4.50
2018-09-21T13:14:03.179Z,3.40
2018-09-21T13:16:31.445Z,3.40
2018-09-21T13:18:59.694Z,3.80
2018-09-21T13:21:28.118Z,4.17
2018-09-21T13:23:56.394Z,4.40
2018-09-21T13:26:24.659Z,3.80
2018-09-21T13:28:52.929Z,3.80
2018-09-21T13:31:21.225Z,4.67
2018-09-21T13:33:49.488Z,5.03
2018-09-21T13:36:17.757Z,4.50
2018-09-21T13:38:46.035Z,3.40
2018-09-21T13:41:14.639Z,4.17
2018-09-21T13:43:42.893Z,4.50
2018-09-21T13:46:11.135Z,4.50
2018-09-21T13:48:39.357Z,4.37
2018-09-21T13:51:07.609Z,4.50
2018-09-21T13:53:36.036Z,4.00
2018-09-21T13:56:04.314Z,4.10
2018-09-21T13:58:32.537Z,4.33
2018-09-21T14:01:00.742Z,3.40
2018-09-21T14:03:28.972Z,4.97
2018-09-21T14:06:01.494Z,4.03
2018-09-21T14:08:29.726Z,4.20
2018-09-21T14:10:57.968Z,4.53
2018-09-21T14:13:26.189Z,5.00
2018-09-21T14:15:54.435Z,3.20
2018-09-21T14:18:22.697Z,3.90
2018-09-21T14:20:50.921Z,3.53
2018-09-21T14:23:19.169Z,3.20
2018-09-21T14:25:47.418Z,3.57
2018-09-21T14:28:15.633Z,4.10
2018-09-21T14:30:43.981Z,3.43
2018-09-21T14:33:12.295Z,3.20
2018-09-21T14:35:40.637Z,4.63
2018-09-21T14:38:08.842Z,3.47
2018-09-21T14:40:37.080Z,3.90
2018-09-21T14:43:05.455Z,4.03
2018-09-21T14:45:33.639Z,3.30
2018-09-21T14:48:04.101Z,4.17
2018-09-21T14:50:32.477Z,4.00
2018-09-21T14:53:00.702Z,3.80
2018-09-21T14:55:28.941Z,2.60
2018-09-21T14:57:57.182Z,2.60
2018-09-21T15:00:25.412Z,2.63
2018-09-21T15:02:53.761Z,2.60
2018-09-21T15:05:22.025Z,2.60
2018-09-21T15:07:50.553Z,2.83
2018-09-21T15:10:18.799Z,2.70
2018-09-21T15:12:47.046Z,2.27
2018-09-21T15:15:15.393Z,1.97
2018-09-21T15:17:43.607Z,2.17
2018-09-21T15:20:11.873Z,2.07
2018-09-21T15:22:40.211Z,2.30
2018-09-21T15:25:08.444Z,2.70
2018-09-21T15:27:36.672Z,1.50
2018-09-21T15:30:05.298Z,1.40
2018-09-21T15:32:33.588Z,2.30
2018-09-21T15:35:01.817Z,2.30
2018-09-21T15:37:30.016Z,2.17
2018-09-21T15:39:58.280Z,1.40
2018-09-21T15:42:26.486Z,2.00
2018-09-21T15:44:54.761Z,1.80
2018-09-21T15:47:22.971Z,2.03
2018-09-21T15:49:51.207Z,1.53
2018-09-21T15:52:19.429Z,1.70
2018-09-21T15:54:47.625Z,1.17
2018-09-21T15:57:15.888Z,1.30
2018-09-21T15:59:45.500Z,1.67
2018-09-21T16:02:16.459Z,1.50
2018-09-21T16:04:45.826Z,1.27
2018-09-21T16:07:15.636Z,1.53
2018-09-21T16:09:45.590Z,1.10
2018-09-21T16:12:15.380Z,1.33
2018-09-21T16:14:45.170Z,1.07
2018-09-21T16:17:13.625Z,1.20
2018-09-21T16:19:43.793Z,0.93
2018-09-21T16:22:13.843Z,1.03
2018-09-21T16:24:43.262Z,0.97
2018-09-21T16:27:13.527Z,0.80
2018-09-21T16:29:44.230Z,0.70
2018-09-21T16:32:13.833Z,0.67
2018-09-21T16:34:43.348Z,0.50
2018-09-21T16:37:13.502Z,0.70
2018-09-21T16:39:43.143Z,0.80
2018-09-21T16:42:12.395Z,0.50
2018-09-21T16:44:42.396Z,0.60
2018-09-21T16:47:12.704Z,0.47
2018-09-21T16:49:42.007Z,0.50
2018-09-21T16:52:12.120Z,0.40
2018-09-21T16:54:42.683Z,0.40
2018-09-21T16:57:11.661Z,0.40
2018-09-21T16:59:43.463Z,0.30
2018-09-21T17:02:13.256Z,0.70
2018-09-21T17:04:42.884Z,0.60
2018-09-21T17:07:16.967Z,0.50
2018-09-21T17:09:48.021Z,0.40
2018-09-21T17:12:18.822Z,0.40
2018-09-21T17:14:48.762Z,0.40
2018-09-21T17:17:17.974Z,0.40
2018-09-21T17:19:48.241Z,0.40
2018-09-21T17:22:18.086Z,0.43
2018-09-21T17:24:51.329Z,0.40
2018-09-21T17:27:19.920Z,0.40
2018-09-21T17:29:48.146Z,0.33
2018-09-21T17:32:16.360Z,0.40
2018-09-21T17:34:44.559Z,0.40
2018-09-21T17:37:12.770Z,0.43
2018-09-21T17:39:40.976Z,0.50
2018-09-21T17:42:09.988Z,0.50
2018-09-21T17:44:38.317Z,0.70
2018-09-21T17:47:06.557Z,0.50
2018-09-21T17:49:34.739Z,1.00
2018-09-21T17:52:02.961Z,1.00
2018-09-21T17:54:31.153Z,0.70
2018-09-21T17:56:59.511Z,0.60
2018-09-21T17:59:27.627Z,0.70
2018-09-21T18:01:55.865Z,0.80
2018-09-21T18:04:24.169Z,0.50
2018-09-21T18:06:52.468Z,0.70
2018-09-21T18:09:20.807Z,0.50
2018-09-21T18:11:49.106Z,0.50
2018-09-21T18:14:17.311Z,0.67
2018-09-21T18:16:45.613Z,0.57
2018-09-21T18:19:13.853Z,0.50
2018-09-21T18:21:42.044Z,0.50
2018-09-21T18:24:10.324Z,0.70
2018-09-21T18:26:38.633Z,0.77
2018-09-21T18:29:07.049Z,0.73
2018-09-21T18:31:35.326Z,0.77
2018-09-21T18:34:03.584Z,0.90
2018-09-21T18:36:31.819Z,0.73
2018-09-21T18:39:01.074Z,0.60
2018-09-21T18:41:29.310Z,0.63
2018-09-21T18:43:57.535Z,0.90
2018-09-21T18:46:25.772Z,0.50
2018-09-21T18:48:54.161Z,0.50
2018-09-21T18:51:22.756Z,0.73
2018-09-21T18:53:51.095Z,0.90
2018-09-21T18:56:19.349Z,1.20
2018-09-21T18:58:47.670Z,1.00
2018-09-21T19:01:15.927Z,0.70
2018-09-21T19:03:44.208Z,0.80
2018-09-21T19:06:12.419Z,0.73
2018-09-21T19:08:40.667Z,1.00
2018-09-21T19:11:08.920Z,0.90
2018-09-21T19:13:37.135Z,0.87
2018-09-21T19:16:05.361Z,1.00
2018-09-21T19:18:33.580Z,0.63
2018-09-21T19:21:02.945Z,0.70
2018-09-21T19:23:31.279Z,2.70
2018-09-21T19:25:59.469Z,1.40
2018-09-21T19:28:27.832Z,1.03
2018-09-21T19:30:56.779Z,0.90
2018-09-21T19:33:25.125Z,0.83
2018-09-21T19:35:53.344Z,0.77
2018-09-21T19:38:21.669Z,1.63
2018-09-21T19:40:49.905Z,0.80
2018-09-21T19:43:18.206Z,0.80
2018-09-21T19:45:46.656Z,1.20
2018-09-21T19:48:14.844Z,0.70
2018-09-21T19:50:43.338Z,0.90
2018-09-21T19:53:11.730Z,0.70
2018-09-21T19:55:40.035Z,0.77
2018-09-21T19:58:09.617Z,0.93
2018-09-21T20:00:37.829Z,0.90
2018-09-21T20:03:06.129Z,0.70
2018-09-21T20:05:34.458Z,0.70
2018-09-21T20:08:02.870Z,1.00
2018-09-21T20:10:31.305Z,0.80
2018-09-21T20:12:59.670Z,0.60
2018-09-21T20:15:28.227Z,0.60
2018-09-21T20:17:56.576Z,0.87
2018-09-21T20:20:24.938Z,1.23
2018-09-21T20:22:53.329Z,0.90
2018-09-21T20:25:22.742Z,1.13
2018-09-21T20:27:50.935Z,0.97
2018-09-21T20:30:24.581Z,1.00
2018-09-21T20:32:58.466Z,1.00
2018-09-21T20:35:26.809Z,1.10
2018-09-21T20:37:55.026Z,0.87
2018-09-21T20:40:23.255Z,0.90
2018-09-21T20:42:51.568Z,1.00
2018-09-21T20:45:19.823Z,0.60
2018-09-21T20:47:48.051Z,1.60
2018-09-21T20:50:16.285Z,0.83
2018-09-21T20:52:44.580Z,1.03
2018-09-21T20:55:12.952Z,1.50
2018-09-21T20:57:41.214Z,1.47
2018-09-21T21:00:09.487Z,1.50
2018-09-21T21:02:37.880Z,1.27
2018-09-21T21:05:06.758Z,0.83
2018-09-21T21:07:35.280Z,1.00
2018-09-21T21:10:03.515Z,1.00
2018-09-21T21:12:31.732Z,1.00
2018-09-21T21:15:00.010Z,0.83
2018-09-21T21:17:28.499Z,0.97
2018-09-21T21:19:56.837Z,0.80
2018-09-21T21:22:25.124Z,1.07
2018-09-21T21:24:53.297Z,0.90
2018-09-21T21:27:21.549Z,1.10
2018-09-21T21:29:49.783Z,4.67
2018-09-21T21:32:18.106Z,5.10
2018-09-21T21:34:46.301Z,4.50
2018-09-21T21:37:14.790Z,1.70
2018-09-21T21:39:43.002Z,1.30
2018-09-21T21:42:11.263Z,1.23
2018-09-21T21:44:39.542Z,1.10
2018-09-21T21:47:07.772Z,0.60
2018-09-21T21:49:36.366Z,0.73
2018-09-21T21:52:04.765Z,0.83
2018-09-21T21:54:33.727Z,1.10
2018-09-21T21:57:08.403Z,0.80
2018-09-21T21:59:36.663Z,0.97
2018-09-21T22:02:07.201Z,1.67
2018-09-21T22:04:41.232Z,0.93
2018-09-21T22:07:10.985Z,1.50
2018-09-21T22:09:40.076Z,0.90
2018-09-21T22:12:13.837Z,0.67
2018-09-21T22:14:42.093Z,0.80
2018-09-21T22:17:10.337Z,0.90
2018-09-21T22:19:38.572Z,1.13
2018-09-21T22:22:07.073Z,0.90
2018-09-21T22:24:35.342Z,1.13
2018-09-21T22:27:03.642Z,0.90
2018-09-21T22:29:31.889Z,0.93
2018-09-21T22:32:00.390Z,0.70
2018-09-21T22:34:28.714Z,1.33
2018-09-21T22:36:56.950Z,0.90
2018-09-21T22:39:25.169Z,1.10
2018-09-21T22:41:53.465Z,0.57
2018-09-21T22:44:21.677Z,0.90
2018-09-21T22:46:51.028Z,0.73
2018-09-21T22:49:21.155Z,0.80
2018-09-21T22:51:49.382Z,1.13
2018-09-21T22:54:17.637Z,0.70
2018-09-21T22:56:45.859Z,0.73
2018-09-21T22:59:14.107Z,1.00
2018-09-21T23:01:42.344Z,0.80
2018-09-21T23:04:10.564Z,1.10
2018-09-21T23:06:38.847Z,1.57
2018-09-21T23:09:09.636Z,0.77
2018-09-21T23:11:37.904Z,1.33
2018-09-21T23:14:06.128Z,0.63
2018-09-21T23:16:34.341Z,0.93
2018-09-21T23:19:02.707Z,1.03
2018-09-21T23:21:30.950Z,1.47
2018-09-21T23:23:59.567Z,0.90
2018-09-21T23:26:28.897Z,0.80
2018-09-21T23:28:57.204Z,0.90
2018-09-21T23:31:25.688Z,1.43
2018-09-21T23:33:53.933Z,1.40
2018-09-21T23:36:22.609Z,1.13
2018-09-21T23:38:51.132Z,1.00
2018-09-21T23:41:19.382Z,0.60
2018-09-21T23:43:47.633Z,0.90
2018-09-21T23:46:15.857Z,1.17
2018-09-21T23:48:45.115Z,0.80
2018-09-21T23:51:13.372Z,0.83
2018-09-21T23:53:41.615Z,0.87
2018-09-21T23:56:09.835Z,1.13
2018-09-21T23:58:38.487Z,0.80
